Terminal Aerodrome Forecast
Issued by NWS Lake Charles, LA

Home | Current Version | Previous Version | Text Only | Print | Product List | Glossary On
Versions: 1 2 3 4 5 6 7 8 9 10 11 12 13 14 15
500
FTUS44 KLCH 111332 AAA
TAFBPT
TAF AMD
KBPT 111332Z 1114/1212 22005KT P6SM SKC
     FM111500 24013G20KT P6SM SKC
     FM120000 22007KT P6SM SKC
     FM120900 22004KT 4SM BR BKN007=

USA.gov is the U.S. government's official web portal to all federal, state and local government web resources and services.